Huvudsida
METAR-TAF:

METAR-TAF

Flygplatser :

Trieste / Ronchi dei Legionari, Italien

latitud: 45-49N, longitud: 013-29E, höjd: 12 m

Aktuellt väderrapport

Denna rapport gjordes för 48 minuter sedan, klockan 07:20 UTC
Vind 4 kt från nordost
Temperatur 5°C
Fuktighet 52%
Tryck 1032 hPa
Sikt 10 km eller mer
Inga moln under 1 500 m eller inga cumulonimbus

METAR: LIPQ 220720Z 04004KT CAVOK 05/M04 Q1032

Tid: 09:08 (08:08 UTC)

Väderprognos

Denna rapport gjordes för 3 timmar och 8 minuter sedan, klockan 05:00 UTC
Prognos gäller från 22 kl. 06 UTC till 23 kl. 06 UTC
Vind 5 kt varierande vindriktning
Sikt 10 km eller mer
Inga moln under 1 500 m eller inga cumulonimbus

TAF: LIPQ 220500Z 2206/2306 VRB05KT CAVOK

Aktuella väderrapporter och prognoser från 4000 flygplatser (METAR- och TAF-rapporter).

De tillgängliga stationerna syns som gula och röda prickar på kartan.

För musen över prickarna för att se namnen på stationerna.

Klicka sedan för att få väderrapporter och prognoser.

För att ändra kartan: Klicka på de gröna knapparna med ett svart kors på för att zooma in; den gröna knappen med ett streck på för att zooma ut; eller på de gröna pilarna för angränsande kartor.


METAR-TAF: